sensor_id;sensor_type;location;lat;lon;timestamp;pressure;altitude;pressure_sealevel;temperature;humidity
46724;BME280;32463;48.298;11.620;2023-05-19T00:02:18;96800.13;;;6.97;100.00
46724;BME280;32463;48.298;11.620;2023-05-19T00:04:45;96794.63;;;6.90;100.00
46724;BME280;32463;48.298;11.620;2023-05-19T00:07:17;96791.13;;;6.91;100.00
46724;BME280;32463;48.298;11.620;2023-05-19T00:09:44;96799.22;;;6.87;100.00
46724;BME280;32463;48.298;11.620;2023-05-19T00:12:11;96791.97;;;6.81;100.00
46724;BME280;32463;48.298;11.620;2023-05-19T00:14:38;96779.84;;;6.71;100.00
46724;BME280;32463;48.298;11.620;2023-05-19T00:17:06;96785.44;;;6.76;100.00
46724;BME280;32463;48.298;11.620;2023-05-19T00:19:33;96780.69;;;6.72;100.00
46724;BME280;32463;48.298;11.620;2023-05-19T00:21:59;96785.25;;;6.68;100.00
46724;BME280;32463;48.298;11.620;2023-05-19T00:24:25;96786.69;;;6.61;100.00
46724;BME280;32463;48.298;11.620;2023-05-19T00:26:52;96779.44;;;6.55;100.00
46724;BME280;32463;48.298;11.620;2023-05-19T00:29:18;96776.41;;;6.50;100.00
46724;BME280;32463;48.298;11.620;2023-05-19T00:31:45;96773.38;;;6.45;100.00
46724;BME280;32463;48.298;11.620;2023-05-19T00:34:13;96783.13;;;6.41;100.00
46724;BME280;32463;48.298;11.620;2023-05-19T00:36:39;96780.91;;;6.37;100.00
46724;BME280;32463;48.298;11.620;2023-05-19T00:39:06;96771.50;;;6.47;100.00
46724;BME280;32463;48.298;11.620;2023-05-19T00:41:33;96765.91;;;6.42;100.00
46724;BME280;32463;48.298;11.620;2023-05-19T00:44:00;96776.91;;;6.44;100.00
46724;BME280;32463;48.298;11.620;2023-05-19T00:46:26;96775.00;;;6.46;100.00
46724;BME280;32463;48.298;11.620;2023-05-19T00:48:54;96766.97;;;6.39;100.00
46724;BME280;32463;48.298;11.620;2023-05-19T00:51:23;96775.06;;;6.35;100.00
46724;BME280;32463;48.298;11.620;2023-05-19T00:53:51;96776.25;;;6.31;100.00
46724;BME280;32463;48.298;11.620;2023-05-19T00:56:18;96765.50;;;6.26;100.00
46724;BME280;32463;48.298;11.620;2023-05-19T00:58:45;96760.34;;;6.26;100.00
46724;BME280;32463;48.298;11.620;2023-05-19T01:01:12;96759.63;;;6.24;100.00
46724;BME280;32463;48.298;11.620;2023-05-19T01:03:41;96757.06;;;6.24;100.00
46724;BME280;32463;48.298;11.620;2023-05-19T01:06:08;96751.47;;;6.19;100.00
46724;BME280;32463;48.298;11.620;2023-05-19T01:08:37;96749.59;;;6.21;100.00
46724;BME280;32463;48.298;11.620;2023-05-19T01:11:04;96749.25;;;6.14;100.00
46724;BME280;32463;48.298;11.620;2023-05-19T01:13:32;96748.31;;;6.15;100.00
46724;BME280;32463;48.298;11.620;2023-05-19T01:16:10;96746.31;;;6.19;100.00
46724;BME280;32463;48.298;11.620;2023-05-19T01:18:51;96744.44;;;6.21;100.00
46724;BME280;32463;48.298;11.620;2023-05-19T01:21:39;96749.34;;;6.24;100.00
46724;BME280;32463;48.298;11.620;2023-05-19T01:27:32;96746.28;;;6.30;100.00
46724;BME280;32463;48.298;11.620;2023-05-19T01:30:29;96743.72;;;6.30;100.00
46724;BME280;32463;48.298;11.620;2023-05-19T01:33:17;96747.47;;;6.26;100.00
46724;BME280;32463;48.298;11.620;2023-05-19T01:35:42;96751.56;;;6.28;100.00
46724;BME280;32463;48.298;11.620;2023-05-19T01:38:11;96754.63;;;6.22;100.00
46724;BME280;32463;48.298;11.620;2023-05-19T01:40:39;96754.50;;;6.13;100.00
46724;BME280;32463;48.298;11.620;2023-05-19T01:43:08;96762.16;;;6.03;100.00
46724;BME280;32463;48.298;11.620;2023-05-19T01:45:36;96756.44;;;5.99;100.00
46724;BME280;32463;48.298;11.620;2023-05-19T01:48:03;96758.31;;;5.97;100.00
46724;BME280;32463;48.298;11.620;2023-05-19T01:50:30;96760.88;;;6.08;100.00
46724;BME280;32463;48.298;11.620;2023-05-19T01:52:57;96760.34;;;6.15;100.00
46724;BME280;32463;48.298;11.620;2023-05-19T01:55:24;96764.78;;;6.24;100.00
46724;BME280;32463;48.298;11.620;2023-05-19T01:58:08;96755.66;;;6.31;100.00
46724;BME280;32463;48.298;11.620;2023-05-19T02:03:46;96757.94;;;6.45;100.00
46724;BME280;32463;48.298;11.620;2023-05-19T02:11:53;96759.75;;;6.65;100.00
46724;BME280;32463;48.298;11.620;2023-05-19T02:14:37;96753.81;;;6.74;100.00
46724;BME280;32463;48.298;11.620;2023-05-19T02:17:04;96753.09;;;6.84;100.00
46724;BME280;32463;48.298;11.620;2023-05-19T02:19:33;96753.03;;;6.95;100.00
46724;BME280;32463;48.298;11.620;2023-05-19T02:22:00;96744.81;;;7.01;100.00
46724;BME280;32463;48.298;11.620;2023-05-19T02:24:26;96745.91;;;7.08;100.00
46724;BME280;32463;48.298;11.620;2023-05-19T02:26:53;96742.38;;;7.09;100.00
46724;BME280;32463;48.298;11.620;2023-05-19T02:29:20;96747.28;;;7.12;100.00
46724;BME280;32463;48.298;11.620;2023-05-19T02:31:46;96738.63;;;7.13;100.00
46724;BME280;32463;48.298;11.620;2023-05-19T02:34:13;96736.47;;;7.18;100.00
46724;BME280;32463;48.298;11.620;2023-05-19T02:36:41;96739.50;;;7.23;100.00
46724;BME280;32463;48.298;11.620;2023-05-19T02:39:11;96731.06;;;7.21;100.00
46724;BME280;32463;48.298;11.620;2023-05-19T02:41:37;96731.06;;;7.21;100.00
46724;BME280;32463;48.298;11.620;2023-05-19T02:44:04;96735.41;;;7.21;100.00
46724;BME280;32463;48.298;11.620;2023-05-19T02:46:31;96729.44;;;7.20;100.00
46724;BME280;32463;48.298;11.620;2023-05-19T02:48:58;96735.41;;;7.21;100.00
46724;BME280;32463;48.298;11.620;2023-05-19T02:51:25;96735.66;;;7.18;100.00
46724;BME280;32463;48.298;11.620;2023-05-19T02:53:51;96728.88;;;7.17;100.00
46724;BME280;32463;48.298;11.620;2023-05-19T02:56:17;96720.44;;;7.15;100.00
46724;BME280;32463;48.298;11.620;2023-05-19T02:58:46;96729.69;;;7.17;100.00
46724;BME280;32463;48.298;11.620;2023-05-19T03:01:12;96731.56;;;7.15;100.00
46724;BME280;32463;48.298;11.620;2023-05-19T03:03:38;96733.22;;;7.16;100.00
46724;BME280;32463;48.298;11.620;2023-05-19T03:06:06;96723.72;;;7.17;100.00
46724;BME280;32463;48.298;11.620;2023-05-19T03:08:34;96729.69;;;7.17;100.00
46724;BME280;32463;48.298;11.620;2023-05-19T03:11:01;96727.78;;;7.19;100.00
46724;BME280;32463;48.298;11.620;2023-05-19T03:13:28;96731.31;;;7.18;100.00
46724;BME280;32463;48.298;11.620;2023-05-19T03:15:54;96726.16;;;7.18;100.00
46724;BME280;32463;48.298;11.620;2023-05-19T03:18:22;96726.47;;;7.25;100.00
46724;BME280;32463;48.298;11.620;2023-05-19T03:20:49;96723.78;;;7.26;100.00
46724;BME280;32463;48.298;11.620;2023-05-19T03:23:18;96713.19;;;7.29;100.00
46724;BME280;32463;48.298;11.620;2023-05-19T03:25:45;96717.81;;;7.35;100.00
46724;BME280;32463;48.298;11.620;2023-05-19T03:28:12;96717.56;;;7.38;100.00
46724;BME280;32463;48.298;11.620;2023-05-19T03:30:38;96720.81;;;7.40;100.00
46724;BME280;32463;48.298;11.620;2023-05-19T03:33:04;96718.00;;;7.43;100.00
46724;BME280;32463;48.298;11.620;2023-05-19T03:35:31;96726.84;;;7.51;100.00
46724;BME280;32463;48.298;11.620;2023-05-19T03:37:57;96721.44;;;7.54;100.00
46724;BME280;32463;48.298;11.620;2023-05-19T03:40:24;96710.72;;;7.58;100.00
46724;BME280;32463;48.298;11.620;2023-05-19T03:42:50;96710.34;;;7.63;100.00
46724;BME280;32463;48.298;11.620;2023-05-19T03:45:18;96708.84;;;7.70;100.00
46724;BME280;32463;48.298;11.620;2023-05-19T03:47:45;96714.16;;;7.78;100.00
46724;BME280;32463;48.298;11.620;2023-05-19T03:50:11;96712.97;;;7.82;100.00
46724;BME280;32463;48.298;11.620;2023-05-19T03:52:39;96711.75;;;7.86;100.00
46724;BME280;32463;48.298;11.620;2023-05-19T03:55:11;96709.59;;;7.91;100.00
46724;BME280;32463;48.298;11.620;2023-05-19T03:57:39;96704.19;;;7.94;100.00
46724;BME280;32463;48.298;11.620;2023-05-19T04:00:08;96707.41;;;7.96;100.00
46724;BME280;32463;48.298;11.620;2023-05-19T04:02:35;96711.38;;;8.00;100.00
46724;BME280;32463;48.298;11.620;2023-05-19T04:05:02;96703.09;;;8.06;100.00
46724;BME280;32463;48.298;11.620;2023-05-19T04:07:29;96701.47;;;8.15;100.00
46724;BME280;32463;48.298;11.620;2023-05-19T04:09:56;96714.25;;;8.17;100.00
46724;BME280;32463;48.298;11.620;2023-05-19T04:12:23;96712.78;;;8.24;100.00
46724;BME280;32463;48.298;11.620;2023-05-19T04:14:49;96707.19;;;8.28;100.00
46724;BME280;32463;48.298;11.620;2023-05-19T04:17:15;96709.25;;;8.34;100.00
46724;BME280;32463;48.298;11.620;2023-05-19T04:19:42;96710.50;;;8.40;100.00
46724;BME280;32463;48.298;11.620;2023-05-19T04:22:08;96709.94;;;8.46;100.00
46724;BME280;32463;48.298;11.620;2023-05-19T04:24:35;96714.56;;;8.52;100.00
46724;BME280;32463;48.298;11.620;2023-05-19T04:27:01;96712.81;;;8.53;100.00
46724;BME280;32463;48.298;11.620;2023-05-19T04:29:29;96711.84;;;8.63;100.00
46724;BME280;32463;48.298;11.620;2023-05-19T04:31:56;96716.72;;;8.66;100.00
46724;BME280;32463;48.298;11.620;2023-05-19T04:34:23;96715.09;;;8.65;100.00
46724;BME280;32463;48.298;11.620;2023-05-19T04:36:49;96708.16;;;8.75;100.00
46724;BME280;32463;48.298;11.620;2023-05-19T04:39:15;96705.03;;;8.82;100.00
46724;BME280;32463;48.298;11.620;2023-05-19T04:41:42;96708.00;;;8.87;100.00
46724;BME280;32463;48.298;11.620;2023-05-19T04:44:09;96704.19;;;8.91;100.00
46724;BME280;32463;48.298;11.620;2023-05-19T04:46:37;96702.53;;;8.99;100.00
46724;BME280;32463;48.298;11.620;2023-05-19T04:49:04;96698.72;;;8.94;100.00
46724;BME280;32463;48.298;11.620;2023-05-19T04:51:30;96701.72;;;8.99;100.00
46724;BME280;32463;48.298;11.620;2023-05-19T04:53:57;96701.44;;;9.02;100.00
46724;BME280;32463;48.298;11.620;2023-05-19T04:56:23;96702.53;;;9.09;100.00
46724;BME280;32463;48.298;11.620;2023-05-19T04:58:51;96698.69;;;9.13;100.00
46724;BME280;32463;48.298;11.620;2023-05-19T05:01:18;96707.13;;;9.15;100.00
46724;BME280;32463;48.298;11.620;2023-05-19T05:03:50;96707.91;;;9.25;100.00
46724;BME280;32463;48.298;11.620;2023-05-19T05:06:19;96712.53;;;9.31;100.00
46724;BME280;32463;48.298;11.620;2023-05-19T05:08:46;96703.25;;;9.38;100.00
46724;BME280;32463;48.298;11.620;2023-05-19T05:11:12;96696.44;;;9.37;100.00
46724;BME280;32463;48.298;11.620;2023-05-19T05:13:39;96696.16;;;9.40;100.00
46724;BME280;32463;48.298;11.620;2023-05-19T05:16:06;96700.75;;;9.47;100.00
46724;BME280;32463;48.298;11.620;2023-05-19T05:18:33;96698.66;;;9.60;100.00
46724;BME280;32463;48.298;11.620;2023-05-19T05:21:00;96695.78;;;9.63;100.00
46724;BME280;32463;48.298;11.620;2023-05-19T05:23:27;96682.16;;;9.61;100.00
46724;BME280;32463;48.298;11.620;2023-05-19T05:25:54;96680.53;;;9.60;100.00
46724;BME280;32463;48.298;11.620;2023-05-19T05:28:20;96672.88;;;9.68;100.00
46724;BME280;32463;48.298;11.620;2023-05-19T05:30:47;96677.75;;;9.71;100.00
46724;BME280;32463;48.298;11.620;2023-05-19T05:33:14;96666.22;;;9.83;100.00
46724;BME280;32463;48.298;11.620;2023-05-19T05:35:42;96667.72;;;9.86;100.00
46724;BME280;32463;48.298;11.620;2023-05-19T05:38:09;96673.94;;;9.93;100.00
46724;BME280;32463;48.298;11.620;2023-05-19T05:40:36;96676.25;;;9.96;100.00
46724;BME280;32463;48.298;11.620;2023-05-19T05:43:03;96680.31;;;9.98;100.00
46724;BME280;32463;48.298;11.620;2023-05-19T05:45:30;96682.50;;;10.21;100.00
46724;BME280;32463;48.298;11.620;2023-05-19T05:47:58;96675.78;;;10.28;100.00
46724;BME280;32463;48.298;11.620;2023-05-19T05:50:25;96685.69;;;10.32;100.00
46724;BME280;32463;48.298;11.620;2023-05-19T05:52:52;96690.56;;;10.53;100.00
46724;BME280;32463;48.298;11.620;2023-05-19T05:55:21;96678.19;;;10.47;100.00
46724;BME280;32463;48.298;11.620;2023-05-19T05:57:48;96683.31;;;10.57;100.00
46724;BME280;32463;48.298;11.620;2023-05-19T06:00:16;96685.72;;;10.76;100.00
46724;BME280;32463;48.298;11.620;2023-05-19T06:02:47;96682.69;;;10.80;100.00
46724;BME280;32463;48.298;11.620;2023-05-19T06:05:14;96681.69;;;10.99;100.00
46724;BME280;32463;48.298;11.620;2023-05-19T06:07:41;96678.13;;;11.26;100.00
46724;BME280;32463;48.298;11.620;2023-05-19T06:10:08;96688.38;;;11.10;100.00
46724;BME280;32463;48.298;11.620;2023-05-19T06:12:35;96689.72;;;11.14;100.00
46724;BME280;32463;48.298;11.620;2023-05-19T06:15:04;96690.53;;;11.48;100.00
46724;BME280;32463;48.298;11.620;2023-05-19T06:17:31;96677.47;;;11.32;100.00
46724;BME280;32463;48.298;11.620;2023-05-19T06:19:58;96680.53;;;11.62;100.00
46724;BME280;32463;48.298;11.620;2023-05-19T06:22:25;96682.34;;;11.61;100.00
46724;BME280;32463;48.298;11.620;2023-05-19T06:24:52;96679.84;;;11.86;100.00
46724;BME280;32463;48.298;11.620;2023-05-19T06:27:18;96690.44;;;11.92;100.00
46724;BME280;32463;48.298;11.620;2023-05-19T06:29:45;96689.19;;;12.21;100.00
46724;BME280;32463;48.298;11.620;2023-05-19T06:32:11;96685.44;;;11.73;100.00
46724;BME280;32463;48.298;11.620;2023-05-19T06:34:37;96689.38;;;11.77;100.00
46724;BME280;32463;48.298;11.620;2023-05-19T06:37:04;96678.94;;;11.61;100.00
46724;BME280;32463;48.298;11.620;2023-05-19T06:39:31;96689.00;;;11.72;100.00
46724;BME280;32463;48.298;11.620;2023-05-19T06:41:57;96686.41;;;11.72;100.00
46724;BME280;32463;48.298;11.620;2023-05-19T06:44:24;96695.59;;;11.50;100.00
46724;BME280;32463;48.298;11.620;2023-05-19T06:46:50;96687.50;;;11.53;100.00
46724;BME280;32463;48.298;11.620;2023-05-19T06:49:17;96692.78;;;11.43;100.00
46724;BME280;32463;48.298;11.620;2023-05-19T06:51:43;96692.13;;;11.41;100.00
46724;BME280;32463;48.298;11.620;2023-05-19T06:54:10;96691.81;;;11.44;100.00
46724;BME280;32463;48.298;11.620;2023-05-19T06:56:39;96695.59;;;11.50;100.00
46724;BME280;32463;48.298;11.620;2023-05-19T06:59:06;96691.03;;;11.78;100.00
46724;BME280;32463;48.298;11.620;2023-05-19T07:01:32;96697.75;;;12.05;100.00
46724;BME280;32463;48.298;11.620;2023-05-19T07:03:59;96691.56;;;11.90;100.00
46724;BME280;32463;48.298;11.620;2023-05-19T07:06:25;96692.69;;;11.87;100.00
46724;BME280;32463;48.298;11.620;2023-05-19T07:08:52;96693.09;;;12.17;100.00
46724;BME280;32463;48.298;11.620;2023-05-19T07:11:18;96687.88;;;12.17;100.00
46724;BME280;32463;48.298;11.620;2023-05-19T07:13:45;96686.59;;;12.21;100.00
46724;BME280;32463;48.298;11.620;2023-05-19T07:16:12;96694.22;;;12.30;100.00
46724;BME280;32463;48.298;11.620;2023-05-19T07:18:38;96685.94;;;12.35;100.00
46724;BME280;32463;48.298;11.620;2023-05-19T07:21:05;96685.97;;;12.75;100.00
46724;BME280;32463;48.298;11.620;2023-05-19T07:23:32;96686.28;;;12.64;100.00
46724;BME280;32463;48.298;11.620;2023-05-19T07:25:58;96693.44;;;12.46;100.00
46724;BME280;32463;48.298;11.620;2023-05-19T07:28:25;96694.41;;;12.45;100.00
46724;BME280;32463;48.298;11.620;2023-05-19T07:30:52;96684.66;;;12.55;100.00
46724;BME280;32463;48.298;11.620;2023-05-19T07:33:18;96687.13;;;12.81;100.00
46724;BME280;32463;48.298;11.620;2023-05-19T07:35:45;96685.00;;;12.60;100.00
46724;BME280;32463;48.298;11.620;2023-05-19T07:38:11;96693.13;;;12.49;100.00
46724;BME280;32463;48.298;11.620;2023-05-19T07:40:38;96677.19;;;12.36;100.00
46724;BME280;32463;48.298;11.620;2023-05-19T07:43:13;96680.94;;;12.74;100.00
46724;BME280;32463;48.298;11.620;2023-05-19T07:45:39;96675.06;;;12.96;100.00
46724;BME280;32463;48.298;11.620;2023-05-19T07:48:07;96686.44;;;12.87;100.00
46724;BME280;32463;48.298;11.620;2023-05-19T07:50:33;96675.91;;;12.80;100.00
46724;BME280;32463;48.298;11.620;2023-05-19T07:53:00;96684.34;;;12.50;100.00
46724;BME280;32463;48.298;11.620;2023-05-19T07:55:26;96686.91;;;12.34;100.00
46724;BME280;32463;48.298;11.620;2023-05-19T07:57:52;96686.31;;;12.48;100.00
46724;BME280;32463;48.298;11.620;2023-05-19T08:00:20;96689.84;;;12.55;100.00
46724;BME280;32463;48.298;11.620;2023-05-19T08:02:46;96687.25;;;12.39;100.00
46724;BME280;32463;48.298;11.620;2023-05-19T08:05:13;96672.31;;;12.81;100.00
46724;BME280;32463;48.298;11.620;2023-05-19T08:07:39;96677.50;;;12.65;100.00
46724;BME280;32463;48.298;11.620;2023-05-19T08:10:06;96676.72;;;12.81;100.00
46724;BME280;32463;48.298;11.620;2023-05-19T08:12:33;96680.59;;;12.93;100.00
46724;BME280;32463;48.298;11.620;2023-05-19T08:14:59;96673.59;;;12.86;100.00
46724;BME280;32463;48.298;11.620;2023-05-19T08:17:26;96672.94;;;13.00;100.00
46724;BME280;32463;48.298;11.620;2023-05-19T08:19:54;96666.47;;;12.71;100.00
46724;BME280;32463;48.298;11.620;2023-05-19T08:22:20;96660.59;;;12.61;100.00
46724;BME280;32463;48.298;11.620;2023-05-19T08:24:47;96672.66;;;12.78;100.00
46724;BME280;32463;48.298;11.620;2023-05-19T08:27:14;96670.38;;;12.67;100.00
46724;BME280;32463;48.298;11.620;2023-05-19T08:29:41;96665.00;;;12.44;100.00
46724;BME280;32463;48.298;11.620;2023-05-19T08:32:08;96679.13;;;12.34;100.00
46724;BME280;32463;48.298;11.620;2023-05-19T08:34:34;96673.44;;;12.22;100.00
46724;BME280;32463;48.298;11.620;2023-05-19T08:37:01;96678.13;;;12.27;100.00
46724;BME280;32463;48.298;11.620;2023-05-19T08:39:27;96678.13;;;12.27;100.00
46724;BME280;32463;48.298;11.620;2023-05-19T08:41:54;96678.16;;;12.43;100.00
46724;BME280;32463;48.298;11.620;2023-05-19T08:44:21;96665.47;;;12.56;100.00
46724;BME280;32463;48.298;11.620;2023-05-19T08:46:48;96670.03;;;12.38;100.00
46724;BME280;32463;48.298;11.620;2023-05-19T08:49:17;96676.19;;;12.29;100.00
46724;BME280;32463;48.298;11.620;2023-05-19T08:54:52;96674.06;;;12.08;100.00
46724;BME280;32463;48.298;11.620;2023-05-19T08:57:21;96675.16;;;11.89;100.00
46724;BME280;32463;48.298;11.620;2023-05-19T08:59:49;96664.44;;;11.92;100.00
46724;BME280;32463;48.298;11.620;2023-05-19T09:02:17;96668.84;;;12.08;100.00
46724;BME280;32463;48.298;11.620;2023-05-19T09:04:44;96669.34;;;12.28;100.00
46724;BME280;32463;48.298;11.620;2023-05-19T09:07:13;96668.06;;;12.16;100.00
46724;BME280;32463;48.298;11.620;2023-05-19T09:09:41;96672.28;;;12.17;100.00
46724;BME280;32463;48.298;11.620;2023-05-19T09:12:12;96667.72;;;12.10;100.00
46724;BME280;32463;48.298;11.620;2023-05-19T09:14:39;96669.69;;;12.25;100.00
46724;BME280;32463;48.298;11.620;2023-05-19T09:17:05;96664.50;;;12.33;100.00
46724;BME280;32463;48.298;11.620;2023-05-19T09:19:31;96664.53;;;12.49;100.00
46724;BME280;32463;48.298;11.620;2023-05-19T09:22:00;96673.59;;;12.29;100.00
46724;BME280;32463;48.298;11.620;2023-05-19T09:24:28;96675.84;;;12.16;100.00
46724;BME280;32463;48.298;11.620;2023-05-19T09:26:55;96670.34;;;12.19;100.00
46724;BME280;32463;48.298;11.620;2023-05-19T09:29:22;96669.34;;;12.28;100.00
46724;BME280;32463;48.298;11.620;2023-05-19T09:31:51;96667.06;;;12.25;100.00
46724;BME280;32463;48.298;11.620;2023-05-19T09:34:19;96668.56;;;12.43;100.00
46724;BME280;32463;48.298;11.620;2023-05-19T09:36:46;96663.19;;;12.29;100.00
46724;BME280;32463;48.298;11.620;2023-05-19T09:39:15;96660.13;;;12.33;100.00
46724;BME280;32463;48.298;11.620;2023-05-19T09:41:42;96661.56;;;12.28;100.00
46724;BME280;32463;48.298;11.620;2023-05-19T09:44:23;96672.97;;;12.43;100.00
46724;BME280;32463;48.298;11.620;2023-05-19T09:46:53;96660.28;;;12.64;100.00
46724;BME280;32463;48.298;11.620;2023-05-19T09:49:27;96665.16;;;12.84;100.00
46724;BME280;32463;48.298;11.620;2023-05-19T09:51:54;96662.88;;;12.72;100.00
46724;BME280;32463;48.298;11.620;2023-05-19T09:54:22;96668.91;;;12.73;100.00
46724;BME280;32463;48.298;11.620;2023-05-19T09:56:56;96666.47;;;12.71;100.00
46724;BME280;32463;48.298;11.620;2023-05-19T09:59:24;96663.88;;;12.47;100.00
46724;BME280;32463;48.298;11.620;2023-05-19T10:01:53;96664.81;;;12.30;100.00
46724;BME280;32463;48.298;11.620;2023-05-19T10:04:22;96659.31;;;12.41;100.00
46724;BME280;32463;48.298;11.620;2023-05-19T10:06:49;96658.66;;;12.63;100.00
46724;BME280;32463;48.298;11.620;2023-05-19T10:09:22;96653.13;;;12.66;100.00
46724;BME280;32463;48.298;11.620;2023-05-19T10:11:51;96658.66;;;12.79;100.00
46724;BME280;32463;48.298;11.620;2023-05-19T10:14:22;96651.81;;;12.62;100.00
46724;BME280;32463;48.298;11.620;2023-05-19T10:16:50;96647.78;;;12.43;100.00
46724;BME280;32463;48.298;11.620;2023-05-19T10:19:22;96648.41;;;12.21;100.00
46724;BME280;32463;48.298;11.620;2023-05-19T10:21:49;96651.19;;;12.36;100.00
46724;BME280;32463;48.298;11.620;2023-05-19T10:24:16;96647.13;;;12.33;100.00
46724;BME280;32463;48.298;11.620;2023-05-19T10:26:47;96646.97;;;12.43;100.00
46724;BME280;32463;48.298;11.620;2023-05-19T10:29:20;96655.06;;;12.16;100.00
46724;BME280;32463;48.298;11.620;2023-05-19T10:31:51;96649.53;;;12.10;100.00
46724;BME280;32463;48.298;11.620;2023-05-19T10:36:58;96648.53;;;12.03;100.00
46724;BME280;32463;48.298;11.620;2023-05-19T10:39:33;96647.91;;;12.09;100.00
46724;BME280;32463;48.298;11.620;2023-05-19T10:42:15;96661.25;;;12.39;100.00
46724;BME280;32463;48.298;11.620;2023-05-19T10:47:30;96651.66;;;12.72;100.00
46724;BME280;32463;48.298;11.620;2023-05-19T10:50:03;96654.56;;;12.93;100.00
46724;BME280;32463;48.298;11.620;2023-05-19T10:52:36;96643.63;;;13.22;100.00
46724;BME280;32463;48.298;11.620;2023-05-19T10:55:08;96645.47;;;13.53;100.00
46724;BME280;32463;48.298;11.620;2023-05-19T10:57:55;96636.34;;;13.57;100.00
46724;BME280;32463;48.298;11.620;2023-05-19T11:00:29;96633.09;;;13.55;100.00
46724;BME280;32463;48.298;11.620;2023-05-19T11:03:12;96638.38;;;13.38;100.00
46724;BME280;32463;48.298;11.620;2023-05-19T11:05:38;96636.69;;;13.45;99.00
46724;BME280;32463;48.298;11.620;2023-05-19T11:08:05;96635.66;;;13.63;98.35
46724;BME280;32463;48.298;11.620;2023-05-19T11:10:33;96642.16;;;13.67;95.79
46724;BME280;32463;48.298;11.620;2023-05-19T11:13:00;96634.50;;;13.73;97.68
46724;BME280;32463;48.298;11.620;2023-05-19T11:15:27;96630.69;;;13.76;97.88
46724;BME280;32463;48.298;11.620;2023-05-19T11:17:54;96623.63;;;13.62;99.09
46724;BME280;32463;48.298;11.620;2023-05-19T11:20:21;96631.06;;;13.73;99.06
46724;BME280;32463;48.298;11.620;2023-05-19T11:23:04;96619.97;;;14.25;92.11
46724;BME280;32463;48.298;11.620;2023-05-19T11:25:44;96619.19;;;14.01;93.21
46724;BME280;32463;48.298;11.620;2023-05-19T11:28:14;96621.50;;;14.42;91.19
46724;BME280;32463;48.298;11.620;2023-05-19T11:30:42;96631.78;;;13.90;92.88
46724;BME280;32463;48.298;11.620;2023-05-19T11:33:09;96627.00;;;13.70;97.77
46724;BME280;32463;48.298;11.620;2023-05-19T11:35:35;96626.75;;;13.49;97.38
46724;BME280;32463;48.298;11.620;2023-05-19T11:38:02;96627.47;;;14.28;95.25
46724;BME280;32463;48.298;11.620;2023-05-19T11:40:29;96618.22;;;14.40;91.38
46724;BME280;32463;48.298;11.620;2023-05-19T11:42:57;96613.78;;;14.86;86.76
46724;BME280;32463;48.298;11.620;2023-05-19T11:45:27;96626.03;;;15.15;83.40
46724;BME280;32463;48.298;11.620;2023-05-19T11:47:54;96629.28;;;15.46;83.59
46724;BME280;32463;48.298;11.620;2023-05-19T11:50:21;96621.19;;;15.12;80.41
46724;BME280;32463;48.298;11.620;2023-05-19T11:52:49;96619.81;;;15.75;80.31
46724;BME280;32463;48.298;11.620;2023-05-19T11:55:20;96616.22;;;16.61;71.68
46724;BME280;32463;48.298;11.620;2023-05-19T11:57:59;96615.06;;;16.64;69.57
46724;BME280;32463;48.298;11.620;2023-05-19T12:00:33;96613.69;;;16.96;69.64
46724;BME280;32463;48.298;11.620;2023-05-19T12:03:01;96618.34;;;17.76;67.06
46724;BME280;32463;48.298;11.620;2023-05-19T12:05:28;96612.59;;;18.13;64.29
46724;BME280;32463;48.298;11.620;2023-05-19T12:07:56;96619.16;;;17.35;66.94
46724;BME280;32463;48.298;11.620;2023-05-19T12:10:25;96623.34;;;16.67;67.67
46724;BME280;32463;48.298;11.620;2023-05-19T12:12:53;96623.34;;;16.46;67.67
46724;BME280;32463;48.298;11.620;2023-05-19T12:15:20;96623.84;;;15.77;72.68
46724;BME280;32463;48.298;11.620;2023-05-19T12:17:56;96616.22;;;15.46;76.30
46724;BME280;32463;48.298;11.620;2023-05-19T12:20:24;96618.75;;;15.55;78.12
46724;BME280;32463;48.298;11.620;2023-05-19T12:22:53;96614.84;;;14.77;81.64
46724;BME280;32463;48.298;11.620;2023-05-19T12:25:20;96616.59;;;15.14;78.89
46724;BME280;32463;48.298;11.620;2023-05-19T12:27:47;96614.84;;;14.77;82.49
46724;BME280;32463;48.298;11.620;2023-05-19T12:30:14;96604.78;;;14.89;84.29
46724;BME280;32463;48.298;11.620;2023-05-19T12:32:41;96607.88;;;14.69;85.13
46724;BME280;32463;48.298;11.620;2023-05-19T12:35:09;96611.78;;;14.73;85.67
46724;BME280;32463;48.298;11.620;2023-05-19T12:37:39;96609.44;;;14.41;88.52
46724;BME280;32463;48.298;11.620;2023-05-19T12:40:07;96604.69;;;14.44;91.80
46724;BME280;32463;48.298;11.620;2023-05-19T12:42:34;96596.91;;;14.36;92.97
46724;BME280;32463;48.298;11.620;2023-05-19T12:45:02;96597.31;;;14.86;88.55
46724;BME280;32463;48.298;11.620;2023-05-19T12:47:31;96598.94;;;15.16;89.77
46724;BME280;32463;48.298;11.620;2023-05-19T12:52:26;96595.00;;;16.07;79.87
46724;BME280;32463;48.298;11.620;2023-05-19T12:55:04;96595.88;;;16.35;76.49
46724;BME280;32463;48.298;11.620;2023-05-19T12:57:37;96587.38;;;15.91;77.85
46724;BME280;32463;48.298;11.620;2023-05-19T13:00:18;96589.56;;;16.30;74.94
46724;BME280;32463;48.298;11.620;2023-05-19T13:05:24;96599.44;;;16.06;79.29
46724;BME280;32463;48.298;11.620;2023-05-19T13:08:04;96586.66;;;15.97;80.60
46724;BME280;32463;48.298;11.620;2023-05-19T13:10:32;96584.59;;;16.35;75.85
46724;BME280;32463;48.298;11.620;2023-05-19T13:13:00;96588.31;;;16.26;77.34
46724;BME280;32463;48.298;11.620;2023-05-19T13:15:29;96591.84;;;16.61;75.55
46724;BME280;32463;48.298;11.620;2023-05-19T13:18:00;96585.88;;;17.29;71.37